Time;durP1;ratioP1;P1;durP2;ratioP2;P2;SDS_P1;SDS_P2;PMS_P1;PMS_P2;Temp;Humidity;BMP_temperature;BMP_pressure;BME280_temperature;BME280_humidity;BME280_pressure;Samples;Min_cycle;Max_cycle;Signal;HPM_P1;HPM_P2
2021/05/09 00:01:12;;;;;;;2.00;1.20;;;;;;;10.02;100.00;96951.13;5133744;27;20237;-85
2021/05/09 00:03:39;;;;;;;1.30;1.20;;;;;;;10.03;100.00;96947.50;5133925;27;20227;-84
2021/05/09 00:06:06;;;;;;;1.10;1.10;;;;;;;10.00;100.00;96953.88;5133752;27;20254;-85
2021/05/09 00:08:33;;;;;;;3.27;1.23;;;;;;;10.01;100.00;96954.72;5134226;27;20187;-85
2021/05/09 00:11:01;;;;;;;1.20;1.10;;;;;;;10.20;100.00;96954.69;5133557;27;20218;-85
2021/05/09 00:13:28;;;;;;;1.40;1.30;;;;;;;10.34;100.00;96958.72;5134143;27;20281;-85
2021/05/09 00:15:54;;;;;;;1.93;1.30;;;;;;;10.18;100.00;96954.03;5133752;27;20290;-85
2021/05/09 00:18:22;;;;;;;1.70;1.60;;;;;;;10.14;100.00;96955.25;5133877;27;20209;-85
2021/05/09 00:20:49;;;;;;;0.90;0.90;;;;;;;10.06;100.00;96955.13;5133964;27;20655;-86
2021/05/09 00:23:16;;;;;;;1.90;1.33;;;;;;;10.14;100.00;96957.88;5133874;27;20282;-85
2021/05/09 00:25:43;;;;;;;1.27;1.17;;;;;;;9.98;100.00;96963.69;5134206;27;20308;-85
2021/05/09 00:28:09;;;;;;;1.83;1.63;;;;;;;10.00;100.00;96969.63;5133790;27;20675;-85
2021/05/09 00:30:36;;;;;;;1.37;1.10;;;;;;;9.97;100.00;96969.88;5133494;27;20309;-85
2021/05/09 00:33:03;;;;;;;1.27;1.10;;;;;;;9.85;100.00;96972.81;5133984;27;20222;-85
2021/05/09 00:35:31;;;;;;;2.40;1.27;;;;;;;9.92;100.00;96974.75;5133654;27;20187;-85
2021/05/09 00:37:58;;;;;;;1.33;1.23;;;;;;;9.91;100.00;96980.13;5133566;27;20201;-85
2021/05/09 00:40:25;;;;;;;1.30;1.20;;;;;;;10.01;100.00;96970.47;5133424;27;20307;-85
2021/05/09 00:42:54;;;;;;;1.43;1.30;;;;;;;9.64;100.00;96994.72;5133444;27;20191;-85
2021/05/09 00:45:22;;;;;;;1.23;1.13;;;;;;;9.63;100.00;96987.84;5133504;27;20671;-85
2021/05/09 00:47:50;;;;;;;1.40;1.30;;;;;;;9.55;100.00;96986.84;5133445;27;20194;-85
2021/05/09 00:50:18;;;;;;;4.13;1.50;;;;;;;9.63;100.00;96986.97;5135944;27;20222;-84
2021/05/09 00:52:47;;;;;;;1.40;1.30;;;;;;;9.53;100.00;96981.72;5137830;27;20561;-84
2021/05/09 00:55:15;;;;;;;1.47;1.33;;;;;;;9.44;100.00;96980.72;5137704;27;20198;-85
2021/05/09 00:57:44;;;;;;;1.50;1.33;;;;;;;9.61;100.00;96974.00;5137343;27;20216;-84
2021/05/09 01:00:13;;;;;;;1.53;1.00;;;;;;;9.75;100.00;96970.97;5137373;27;20286;-85
2021/05/09 01:02:42;;;;;;;2.03;1.20;;;;;;;9.66;100.00;96982.28;5137265;27;20281;-85
2021/05/09 01:05:10;;;;;;;1.60;1.50;;;;;;;9.72;100.00;96978.31;5137691;27;20183;-85
2021/05/09 01:07:38;;;;;;;3.90;1.10;;;;;;;9.94;100.00;96970.19;5137345;27;20274;-85
2021/05/09 01:10:09;;;;;;;1.17;1.17;;;;;;;9.83;100.00;96969.47;5137114;27;20318;-84
2021/05/09 01:12:36;;;;;;;1.13;1.03;;;;;;;9.73;100.00;96983.44;5137665;27;20603;-85
2021/05/09 01:15:03;;;;;;;1.20;1.20;;;;;;;9.67;100.00;96988.41;5137112;27;20195;-85
2021/05/09 01:17:30;;;;;;;1.20;1.17;;;;;;;9.73;100.00;96990.44;5137036;27;20195;-84
2021/05/09 01:20:01;;;;;;;1.43;1.33;;;;;;;9.84;100.00;96995.59;5137225;27;20198;-85
2021/05/09 01:22:28;;;;;;;1.10;1.10;;;;;;;9.91;100.00;96996.72;5137138;27;20187;-84
2021/05/09 01:24:55;;;;;;;1.10;1.10;;;;;;;10.09;100.00;96990.78;5136930;27;20281;-85
2021/05/09 01:27:21;;;;;;;1.30;1.27;;;;;;;10.09;100.00;96999.50;5137340;27;20194;-84
2021/05/09 01:29:49;;;;;;;1.17;1.10;;;;;;;10.01;100.00;97007.25;5136635;27;20768;-84
2021/05/09 01:32:16;;;;;;;2.77;1.50;;;;;;;9.82;100.00;97008.03;5137097;27;20591;-85
2021/05/09 01:34:43;;;;;;;3.33;1.27;;;;;;;9.69;100.00;97016.16;5136986;27;20571;-85
2021/05/09 01:37:10;;;;;;;2.70;2.50;;;;;;;9.87;100.00;97015.50;5136842;27;20199;-85
2021/05/09 01:39:37;;;;;;;13.30;8.00;;;;;;;9.64;100.00;97020.97;5136860;27;20575;-84
2021/05/09 01:42:05;;;;;;;4.93;2.80;;;;;;;9.17;100.00;97018.03;5136534;27;20278;-83
2021/05/09 01:44:32;;;;;;;1.90;1.63;;;;;;;9.41;100.00;97014.28;5136371;27;20230;-84
2021/05/09 01:46:59;;;;;;;1.77;1.67;;;;;;;8.71;100.00;97024.56;5136564;27;20750;-84
2021/05/09 01:49:25;;;;;;;1.27;1.17;;;;;;;8.50;100.00;97021.13;5136444;27;20199;-84
2021/05/09 01:51:54;;;;;;;1.20;1.10;;;;;;;8.63;100.00;97029.63;5137171;27;20198;-85
2021/05/09 01:54:22;;;;;;;1.57;1.47;;;;;;;8.53;100.00;97029.56;5136375;27;20194;-85
2021/05/09 01:56:49;;;;;;;1.73;1.33;;;;;;;8.45;100.00;97033.75;5136283;27;20233;-85
2021/05/09 01:59:16;;;;;;;1.80;1.37;;;;;;;8.81;100.00;97035.94;5136663;27;20277;-85
2021/05/09 02:01:43;;;;;;;1.20;1.10;;;;;;;8.74;100.00;97036.59;5135429;27;20240;-85
2021/05/09 02:04:09;;;;;;;1.53;1.43;;;;;;;8.79;100.00;97037.84;5136047;27;20269;-85
2021/05/09 02:06:36;;;;;;;1.57;1.47;;;;;;;8.90;100.00;97031.72;5136356;27;20226;-87
2021/05/09 02:09:04;;;;;;;2.83;1.53;;;;;;;8.91;100.00;97022.06;5136097;27;20289;-85
2021/05/09 02:11:32;;;;;;;1.33;1.27;;;;;;;8.68;100.00;97035.31;5135978;27;20224;-84
2021/05/09 02:13:59;;;;;;;2.47;1.30;;;;;;;8.49;100.00;97028.16;5136368;27;20231;-85
2021/05/09 02:16:26;;;;;;;1.43;1.33;;;;;;;8.64;100.00;97030.47;5136287;27;20637;-85
2021/05/09 02:18:53;;;;;;;1.73;1.63;;;;;;;8.86;100.00;97027.69;5136458;27;20218;-85
2021/05/09 02:21:19;;;;;;;1.60;1.37;;;;;;;8.76;100.00;97032.91;5136209;27;20201;-85
2021/05/09 02:23:46;;;;;;;3.90;1.67;;;;;;;8.59;100.00;97036.09;5135969;27;20626;-85
2021/05/09 02:26:13;;;;;;;1.90;1.57;;;;;;;8.52;100.00;97035.75;5136214;27;20228;-85
2021/05/09 02:28:42;;;;;;;1.60;1.20;;;;;;;8.78;100.00;97040.63;5136117;27;20201;-85
2021/05/09 02:31:09;;;;;;;6.77;4.07;;;;;;;8.67;100.00;97040.69;5135562;27;20226;-85
2021/05/09 02:33:36;;;;;;;7.97;4.00;;;;;;;8.16;100.00;97060.50;5135847;27;20218;-84
2021/05/09 02:36:03;;;;;;;3.17;2.47;;;;;;;8.17;100.00;97059.53;5135754;27;20251;-85
2021/05/09 02:38:30;;;;;;;5.57;2.73;;;;;;;7.94;100.00;97063.22;5135635;27;20198;-85
2021/05/09 02:40:57;;;;;;;5.20;3.33;;;;;;;7.77;100.00;97057.53;5135784;27;20255;-84
2021/05/09 02:43:24;;;;;;;4.20;2.13;;;;;;;7.66;100.00;97044.47;5135405;27;20194;-84
2021/05/09 02:45:52;;;;;;;3.53;3.33;;;;;;;7.63;100.00;97053.38;5135491;27;20678;-84
2021/05/09 02:48:18;;;;;;;3.20;2.90;;;;;;;7.46;100.00;97047.81;5135849;27;20633;-85
2021/05/09 02:50:45;;;;;;;1.70;1.60;;;;;;;7.33;100.00;97051.38;5135206;27;20224;-85
2021/05/09 02:53:12;;;;;;;3.40;1.67;;;;;;;7.46;100.00;97064.34;5135321;27;20689;-85
2021/05/09 02:55:39;;;;;;;6.80;6.30;;;;;;;7.52;100.00;97076.13;5135217;27;20281;-85
2021/05/09 02:58:06;;;;;;;2.97;2.50;;;;;;;7.73;100.00;97079.66;5135430;27;20282;-85
2021/05/09 03:00:33;;;;;;;5.23;4.83;;;;;;;7.69;100.00;97085.22;5135461;27;20214;-85
2021/05/09 03:03:00;;;;;;;1.90;1.80;;;;;;;7.75;100.00;97088.19;5132329;27;20272;-84
2021/05/09 03:05:27;;;;;;;4.10;1.53;;;;;;;7.89;100.00;97091.53;5134784;27;20658;-83
2021/05/09 03:07:54;;;;;;;1.33;1.23;;;;;;;7.88;100.00;97097.72;5134674;27;20202;-83
2021/05/09 03:10:21;;;;;;;1.50;1.40;;;;;;;7.98;100.00;97107.34;5134622;27;20691;-83
2021/05/09 03:12:48;;;;;;;1.50;1.40;;;;;;;7.97;100.00;97104.84;5134405;27;20198;-82
2021/05/09 03:15:15;;;;;;;1.60;1.50;;;;;;;8.21;100.00;97108.13;5134476;27;20285;-83
2021/05/09 03:17:42;;;;;;;1.10;1.10;;;;;;;8.32;100.00;97115.13;5134610;27;20286;-84
2021/05/09 03:20:11;;;;;;;2.20;2.00;;;;;;;8.50;100.00;97107.56;5134725;27;20190;-85
2021/05/09 03:22:38;;;;;;;1.50;1.40;;;;;;;8.32;100.00;97115.94;5135254;27;20249;-84
2021/05/09 03:25:05;;;;;;;5.20;4.37;;;;;;;8.17;100.00;97129.41;5134620;27;20191;-84
2021/05/09 03:27:32;;;;;;;2.27;2.17;;;;;;;7.72;100.00;97129.47;5134920;27;20186;-84
2021/05/09 03:29:59;;;;;;;2.03;1.50;;;;;;;7.70;100.00;97127.00;5134348;27;20292;-84
2021/05/09 03:32:25;;;;;;;1.57;1.47;;;;;;;7.82;100.00;97138.28;5134586;27;20194;-84
2021/05/09 03:34:52;;;;;;;1.63;1.50;;;;;;;8.08;100.00;97137.06;5134674;27;20582;-85
2021/05/09 03:37:21;;;;;;;2.10;1.33;;;;;;;8.26;100.00;97142.63;5134541;27;20201;-84
2021/05/09 03:39:48;;;;;;;2.03;1.77;;;;;;;8.41;100.00;97150.22;5134439;27;20194;-85
2021/05/09 03:42:15;;;;;;;1.97;1.80;;;;;;;8.38;100.00;97158.34;5134341;27;20198;-85
2021/05/09 03:44:42;;;;;;;2.40;2.17;;;;;;;8.45;100.00;97156.88;5134322;27;20195;-84
2021/05/09 03:47:09;;;;;;;1.70;1.60;;;;;;;8.46;100.00;97159.41;5134376;27;20202;-84
2021/05/09 03:49:35;;;;;;;3.30;2.40;;;;;;;8.40;100.00;97162.50;5133803;27;20281;-85
2021/05/09 03:52:02;;;;;;;4.30;2.53;;;;;;;8.38;100.00;97163.56;5132326;27;20191;-86
2021/05/09 03:54:30;;;;;;;1.93;1.60;;;;;;;8.40;100.00;97164.28;5134764;27;20577;-85
2021/05/09 03:56:57;;;;;;;3.87;2.00;;;;;;;8.44;100.00;97168.31;5134292;27;20340;-86
2021/05/09 03:59:23;;;;;;;2.17;1.90;;;;;;;8.49;100.00;97167.00;5134167;27;20195;-85
2021/05/09 04:01:50;;;;;;;1.63;1.53;;;;;;;8.46;100.00;97172.50;5134146;27;20277;-85
2021/05/09 04:04:17;;;;;;;9.60;4.17;;;;;;;8.48;100.00;97186.28;5133946;27;20310;-87
2021/05/09 04:06:44;;;;;;;3.87;2.10;;;;;;;8.48;100.00;97183.66;5134139;27;20236;-87
2021/05/09 04:09:10;;;;;;;2.57;2.37;;;;;;;8.55;100.00;97179.59;5134315;27;20221;-86
2021/05/09 04:11:38;;;;;;;3.20;1.90;;;;;;;8.26;100.00;97176.66;5133894;27;20732;-89
2021/05/09 04:14:05;;;;;;;1.40;1.10;;;;;;;8.44;100.00;97184.03;5134374;27;20226;-90
2021/05/09 04:16:32;;;;;;;4.73;1.87;;;;;;;8.52;100.00;97181.63;5133873;27;20201;-89
2021/05/09 04:18:59;;;;;;;8.37;4.47;;;;;;;8.83;100.00;97193.09;5134084;27;20195;-89
2021/05/09 04:21:25;;;;;;;11.97;7.17;;;;;;;8.61;100.00;97195.78;5133837;27;20277;-89
2021/05/09 04:23:52;;;;;;;15.07;7.70;;;;;;;8.74;100.00;97196.47;5133002;27;20277;-89
2021/05/09 04:26:19;;;;;;;14.33;7.10;;;;;;;8.66;100.00;97188.38;5134005;27;20285;-89
2021/05/09 04:28:47;;;;;;;8.33;4.07;;;;;;;8.61;100.00;97180.91;5134990;27;20675;-88
2021/05/09 04:31:14;;;;;;;2.90;2.17;;;;;;;8.74;100.00;97178.94;5133675;27;20218;-89
2021/05/09 04:33:41;;;;;;;3.40;2.07;;;;;;;8.38;100.00;97171.44;5133850;27;20203;-89
2021/05/09 04:36:10;;;;;;;4.73;2.83;;;;;;;8.75;100.00;97162.25;5135774;27;20648;-89
2021/05/09 04:38:47;;;;;;;;;;;;;;;;;;;;;
2021/05/09 04:41:14;;;;;;;3.10;2.40;;;;;;;8.55;100.00;97157.81;5138885;28;20183;-89
2021/05/09 04:43:42;;;;;;;15.03;9.90;;;;;;;8.51;100.00;97151.97;5133757;27;20663;-88
2021/05/09 04:46:10;;;;;;;3.70;2.60;;;;;;;8.37;100.00;97151.41;5133667;27;20686;-88
2021/05/09 04:48:37;;;;;;;4.50;2.63;;;;;;;8.19;100.00;97156.34;5134012;27;20678;-89
2021/05/09 04:51:04;;;;;;;6.57;4.43;;;;;;;8.47;100.00;97162.84;5133513;27;20309;-89
2021/05/09 04:53:33;;;;;;;3.10;2.67;;;;;;;8.69;100.00;97186.34;5133579;27;20190;-88
2021/05/09 04:56:01;;;;;;;3.67;3.03;;;;;;;8.88;100.00;97183.06;5134040;27;20662;-89
2021/05/09 04:58:29;;;;;;;2.80;2.57;;;;;;;9.09;100.00;97196.19;5133630;27;20238;-89
2021/05/09 05:00:59;;;;;;;3.07;2.20;;;;;;;9.17;100.00;97196.38;5133710;27;20222;-89
2021/05/09 05:03:27;;;;;;;4.90;4.40;;;;;;;9.27;100.00;97202.53;5133607;27;20613;-89
2021/05/09 05:05:54;;;;;;;2.67;2.27;;;;;;;9.46;100.00;97222.03;5133424;27;20285;-89
2021/05/09 05:08:21;;;;;;;5.00;4.00;;;;;;;9.64;100.00;97238.00;5133470;27;20197;-88
2021/05/09 05:10:49;;;;;;;4.67;4.00;;;;;;;9.84;100.00;97238.97;5133226;27;20218;-88
2021/05/09 05:13:17;;;;;;;4.00;3.30;;;;;;;9.99;100.00;97238.47;5133289;27;20195;-88
2021/05/09 05:15:46;;;;;;;1.87;1.77;;;;;;;9.99;100.00;97245.53;5133333;27;20190;-88
2021/05/09 05:18:12;;;;;;;3.40;1.90;;;;;;;10.07;100.00;97250.94;5133388;27;20194;-88
2021/05/09 05:20:43;;;;;;;2.30;2.10;;;;;;;10.29;100.00;97251.75;5133496;27;20217;-88
2021/05/09 05:23:11;;;;;;;3.63;2.40;;;;;;;10.44;100.00;97261.78;5133469;27;20633;-88
2021/05/09 05:25:38;;;;;;;1.57;1.47;;;;;;;10.56;100.00;97262.50;5133527;27;20199;-88
2021/05/09 05:28:05;;;;;;;3.00;2.10;;;;;;;10.75;100.00;97260.91;5133258;27;20701;-87
2021/05/09 05:30:32;;;;;;;2.73;2.13;;;;;;;10.70;100.00;97267.41;5133146;27;20718;-87
2021/05/09 05:32:59;;;;;;;3.40;2.37;;;;;;;10.85;100.00;97270.47;5133236;27;20194;-89
2021/05/09 05:35:26;;;;;;;1.60;1.50;;;;;;;10.83;100.00;97272.38;5134231;27;20702;-88
2021/05/09 05:37:54;;;;;;;1.77;1.67;;;;;;;11.11;100.00;97277.81;5136984;27;20199;-88
2021/05/09 05:40:22;;;;;;;1.67;1.57;;;;;;;10.99;100.00;97274.50;5137046;27;20199;-89
2021/05/09 05:42:48;;;;;;;2.90;1.90;;;;;;;11.27;100.00;97283.38;5136853;27;20201;-88
2021/05/09 05:45:16;;;;;;;1.47;1.37;;;;;;;11.37;100.00;97283.41;5136856;27;20220;-88
2021/05/09 05:47:43;;;;;;;4.03;2.50;;;;;;;11.65;100.00;97279.06;5136646;27;20255;-88
2021/05/09 05:50:11;;;;;;;2.87;2.10;;;;;;;11.67;100.00;97279.75;5136430;27;20266;-88
2021/05/09 05:52:38;;;;;;;7.63;5.03;;;;;;;11.66;100.00;97280.72;5136776;27;20251;-88
2021/05/09 05:55:07;;;;;;;6.73;4.70;;;;;;;11.79;100.00;97288.34;5136438;27;20234;-88
2021/05/09 05:57:34;;;;;;;6.47;4.60;;;;;;;12.04;100.00;97282.50;5136815;27;20550;-88
2021/05/09 06:00:01;;;;;;;4.40;4.00;;;;;;;11.99;100.00;97276.84;5136546;27;20282;-88
2021/05/09 06:02:28;;;;;;;4.77;4.37;;;;;;;12.03;100.00;97275.56;5136524;27;20187;-88
2021/05/09 06:04:54;;;;;;;2.33;2.10;;;;;;;12.32;100.00;97285.19;5136534;27;20218;-89
2021/05/09 06:07:22;;;;;;;5.33;2.27;;;;;;;12.44;100.00;97286.66;5136576;27;20195;-87
2021/05/09 06:09:49;;;;;;;2.60;2.40;;;;;;;12.44;100.00;97276.13;5136210;27;20195;-87
2021/05/09 06:12:16;;;;;;;2.90;2.10;;;;;;;12.66;100.00;97279.34;5136279;27;20239;-88
2021/05/09 06:14:43;;;;;;;4.60;3.47;;;;;;;12.85;100.00;97279.25;5136304;27;20208;-88
2021/05/09 06:17:10;;;;;;;3.67;2.20;;;;;;;12.80;100.00;97284.13;5136314;27;20293;-88
2021/05/09 06:19:37;;;;;;;2.50;2.30;;;;;;;12.77;100.00;97292.34;5136065;27;20273;-87
2021/05/09 06:22:03;;;;;;;3.37;1.80;;;;;;;12.86;100.00;97286.19;5136398;27;20230;-87
2021/05/09 06:24:30;;;;;;;3.83;3.43;;;;;;;12.81;100.00;97286.59;5136113;27;20191;-88
2021/05/09 06:26:57;;;;;;;2.10;1.90;;;;;;;12.97;100.00;97291.25;5136234;27;20223;-87
2021/05/09 06:29:25;;;;;;;1.73;1.63;;;;;;;12.94;100.00;97294.19;5136104;27;20586;-87
2021/05/09 06:31:51;;;;;;;2.10;1.90;;;;;;;13.41;100.00;97286.09;5135601;27;20254;-81
2021/05/09 06:34:18;;;;;;;1.97;1.87;;;;;;;13.40;100.00;97291.53;5134851;27;20211;-77
2021/05/09 06:36:45;;;;;;;2.03;1.80;;;;;;;13.53;100.00;97289.34;5134962;27;20234;-77
2021/05/09 06:39:12;;;;;;;1.67;1.57;;;;;;;13.79;100.00;97297.31;5134782;27;20195;-78
2021/05/09 06:41:39;;;;;;;6.17;2.80;;;;;;;14.06;100.00;97292.88;5134579;27;20259;-77
2021/05/09 06:44:09;;;;;;;3.10;2.80;;;;;;;13.85;100.00;97294.03;5134696;27;20701;-78
2021/05/09 06:46:37;;;;;;;13.23;6.90;;;;;;;14.13;100.00;97291.25;5134405;27;20191;-77
2021/05/09 06:49:04;;;;;;;5.40;4.57;;;;;;;14.66;100.00;97287.63;5134146;27;20199;-77
2021/05/09 06:51:31;;;;;;;24.17;15.50;;;;;;;14.71;100.00;97290.59;5134496;27;20222;-78
2021/05/09 06:53:57;;;;;;;7.73;5.20;;;;;;;14.61;100.00;97296.00;5134528;27;20186;-78
2021/05/09 06:56:27;;;;;;;8.20;5.83;;;;;;;14.76;100.00;97292.78;5134619;27;20198;-78
2021/05/09 06:58:54;;;;;;;10.13;3.13;;;;;;;14.54;100.00;97299.47;5134484;27;20191;-78
2021/05/09 07:01:20;;;;;;;1.70;1.60;;;;;;;14.98;100.00;97300.13;5134229;27;20281;-78
2021/05/09 07:03:48;;;;;;;2.60;2.40;;;;;;;15.05;100.00;97298.50;5134159;27;20726;-78
2021/05/09 07:06:15;;;;;;;4.90;3.67;;;;;;;15.24;100.00;97294.75;5134401;27;20252;-78
2021/05/09 07:08:42;;;;;;;2.00;1.80;;;;;;;15.06;100.00;97302.78;5134255;27;20191;-78
2021/05/09 07:11:08;;;;;;;2.77;1.83;;;;;;;14.80;100.00;97305.53;5134259;27;20313;-78
2021/05/09 07:13:35;;;;;;;1.97;1.70;;;;;;;14.89;100.00;97309.84;5133805;27;20254;-78
2021/05/09 07:16:02;;;;;;;2.20;2.00;;;;;;;14.83;100.00;97305.22;5134381;27;20195;-78
2021/05/09 07:18:30;;;;;;;2.80;2.20;;;;;;;14.63;100.00;97309.94;5134273;27;20190;-77
2021/05/09 07:21:00;;;;;;;6.27;4.47;;;;;;;15.18;100.00;97301.50;5133929;27;20191;-77
2021/05/09 07:23:28;;;;;;;2.87;2.40;;;;;;;15.57;100.00;97292.97;5133875;27;20274;-78
2021/05/09 07:25:55;;;;;;;9.43;2.63;;;;;;;15.20;100.00;97302.16;5134024;27;20198;-78
2021/05/09 07:28:22;;;;;;;2.00;1.90;;;;;;;15.22;100.00;97300.19;5134134;27;20556;-77
2021/05/09 07:30:49;;;;;;;4.10;2.53;;;;;;;14.95;100.00;97313.69;5133659;27;20218;-77
2021/05/09 07:33:17;;;;;;;2.13;1.97;;;;;;;15.32;100.00;97315.94;5133933;27;20608;-77
2021/05/09 07:35:43;;;;;;;2.13;2.00;;;;;;;16.20;100.00;97304.72;5133874;27;20218;-78
2021/05/09 07:38:13;;;;;;;3.30;1.60;;;;;;;15.84;100.00;97320.16;5133517;27;20191;-77
2021/05/09 07:40:40;;;;;;;2.20;2.00;;;;;;;15.61;100.00;97317.31;5133434;27;20193;-77
2021/05/09 07:43:08;;;;;;;4.03;2.17;;;;;;;15.60;100.00;97319.13;5133491;27;20295;-78
2021/05/09 07:45:35;;;;;;;2.23;2.03;;;;;;;15.67;100.00;97319.34;5133669;27;20289;-77
2021/05/09 07:48:01;;;;;;;4.43;2.30;;;;;;;15.17;100.00;97329.00;5133441;27;20199;-77
2021/05/09 07:50:28;;;;;;;1.90;1.80;;;;;;;15.19;100.00;97323.53;5133514;27;20717;-78
2021/05/09 07:52:59;;;;;;;3.47;2.50;;;;;;;15.35;100.00;97320.91;5133079;27;20208;-77
2021/05/09 07:55:27;;;;;;;3.50;2.00;;;;;;;15.50;100.00;97323.75;5133476;27;20228;-77
2021/05/09 07:57:55;;;;;;;1.77;1.67;;;;;;;15.42;100.00;97335.16;5133568;27;20551;-78
2021/05/09 08:00:22;;;;;;;3.13;2.10;;;;;;;15.24;100.00;97334.47;5132504;27;20194;-77
2021/05/09 08:02:50;;;;;;;2.37;2.10;;;;;;;15.07;100.00;97343.38;5132790;27;20241;-77
2021/05/09 08:05:17;;;;;;;1.90;1.80;;;;;;;15.55;100.00;97332.06;5133371;27;20191;-77
2021/05/09 08:07:52;;;;;;;1.67;1.57;;;;;;;15.57;100.00;97321.28;5133465;27;20623;-77
2021/05/09 08:10:19;;;;;;;2.47;2.00;;;;;;;14.69;100.00;97350.81;5133017;27;20218;-77
2021/05/09 08:12:47;;;;;;;4.30;2.73;;;;;;;14.37;100.00;97346.94;5133028;27;20579;-77
2021/05/09 08:15:15;;;;;;;5.17;2.20;;;;;;;14.17;100.00;97350.81;5133469;27;20580;-77
2021/05/09 08:17:42;;;;;;;2.97;2.37;;;;;;;13.63;100.00;97369.34;5132983;27;20281;-78
2021/05/09 08:20:11;;;;;;;5.70;3.57;;;;;;;13.43;100.00;97368.63;5132774;27;20194;-76
2021/05/09 08:22:38;;;;;;;2.43;2.23;;;;;;;13.47;100.00;97370.03;5132948;27;20688;-77
2021/05/09 08:25:06;;;;;;;2.53;2.20;;;;;;;14.41;100.00;97361.53;5132933;27;20198;-77
2021/05/09 08:27:34;;;;;;;6.13;5.07;;;;;;;15.07;100.00;97343.38;5133038;27;20195;-77
2021/05/09 08:30:03;;;;;;;5.97;4.60;;;;;;;15.30;100.00;97352.34;5132891;27;20198;-77
2021/05/09 08:32:29;;;;;;;3.07;2.87;;;;;;;16.40;100.00;97326.41;5132733;27;20194;-77
2021/05/09 08:34:57;;;;;;;1.77;1.67;;;;;;;15.27;100.00;97347.38;5132789;27;20201;-77
2021/05/09 08:37:24;;;;;;;2.67;1.80;;;;;;;14.91;100.00;97360.81;5133165;27;20244;-77
2021/05/09 08:39:51;;;;;;;5.90;2.00;;;;;;;15.17;100.00;97358.13;5132720;27;20696;-77
2021/05/09 08:42:20;;;;;;;2.87;2.00;;;;;;;14.73;100.00;97362.72;5132970;27;20624;-77
2021/05/09 08:44:47;;;;;;;2.63;2.20;;;;;;;14.06;100.00;97369.53;5132678;27;20195;-77
2021/05/09 08:47:15;;;;;;;1.80;1.70;;;;;;;13.46;100.00;97370.97;5132750;27;20250;-77
2021/05/09 08:49:42;;;;;;;3.20;2.83;;;;;;;13.67;100.00;97372.50;5132621;27;20190;-77
2021/05/09 08:52:10;;;;;;;5.93;2.90;;;;;;;14.21;100.00;97358.25;5132440;27;20268;-77
2021/05/09 08:54:37;;;;;;;2.03;1.87;;;;;;;14.80;100.00;97349.72;5132881;27;20195;-77
2021/05/09 08:57:04;;;;;;;3.27;2.63;;;;;;;14.54;100.00;97358.47;5132789;27;20195;-77
2021/05/09 08:59:31;;;;;;;2.20;2.10;;;;;;;14.13;100.00;97371.44;5132836;27;20230;-77
2021/05/09 09:01:58;;;;;;;6.80;5.07;;;;;;;14.47;100.00;97358.25;5132480;27;20246;-78
2021/05/09 09:04:26;;;;;;;2.50;2.30;;;;;;;14.48;100.00;97354.63;5132332;27;20683;-77
2021/05/09 09:06:54;;;;;;;2.17;1.97;;;;;;;14.80;100.00;97352.34;5132670;27;20191;-77
2021/05/09 09:09:22;;;;;;;3.20;2.90;;;;;;;15.61;100.00;97341.16;5132867;27;20206;-77
2021/05/09 09:11:53;;;;;;;5.60;2.00;;;;;;;15.93;100.00;97338.56;5135684;27;20313;-78
2021/05/09 09:14:25;;;;;;;2.47;1.80;;;;;;;15.16;100.00;97352.97;5136654;27;20198;-77
2021/05/09 09:17:10;;;;;;;2.40;1.90;;;;;;;15.43;100.00;97338.66;5136598;27;20181;-78
2021/05/09 09:19:57;;;;;;;2.87;2.60;;;;;;;15.73;100.00;97331.13;5136123;27;20183;-78
2021/05/09 09:22:24;;;;;;;1.93;1.83;;;;;;;15.44;100.00;97346.41;5136517;27;20194;-77
2021/05/09 09:25:03;;;;;;;2.57;2.00;;;;;;;15.51;100.00;97340.47;5136264;27;20202;-77
2021/05/09 09:27:30;;;;;;;4.33;3.10;;;;;;;16.02;100.00;97341.22;5137050;27;20316;-77
2021/05/09 09:30:01;;;;;;;5.20;3.33;;;;;;;15.94;100.00;97336.75;5136163;27;20195;-77
2021/05/09 09:32:28;;;;;;;1.93;1.83;;;;;;;16.08;100.00;97335.25;5136000;27;20196;-77
2021/05/09 09:34:56;;;;;;;5.27;2.87;;;;;;;16.88;100.00;97325.44;5135993;27;20678;-77
2021/05/09 09:37:24;;;;;;;5.00;3.03;;;;;;;17.41;100.00;97319.53;5136259;27;20231;-78
2021/05/09 09:39:53;;;;;;;5.07;3.43;;;;;;;16.63;100.00;97332.66;5135672;27;20236;-77
2021/05/09 09:42:35;;;;;;;4.03;3.00;;;;;;;17.37;100.00;97318.25;5136703;27;20216;-77
2021/05/09 09:45:13;;;;;;;2.40;2.20;;;;;;;17.94;100.00;97301.88;5136000;27;20189;-78
2021/05/09 09:47:47;;;;;;;1.73;1.63;;;;;;;17.63;100.00;97308.09;5136171;27;20189;-77
2021/05/09 09:50:40;;;;;;;2.60;2.40;;;;;;;17.36;100.00;97317.41;5135880;27;20205;-77
2021/05/09 09:53:28;;;;;;;1.80;1.70;;;;;;;17.55;100.00;97327.56;5135826;27;20195;-77
2021/05/09 09:56:03;;;;;;;3.87;2.53;;;;;;;17.31;100.00;97317.09;5135846;27;20183;-78
2021/05/09 09:58:48;;;;;;;9.00;5.50;;;;;;;16.69;100.00;97325.81;5135580;27;20285;-78
2021/05/09 10:01:18;;;;;;;2.40;1.83;;;;;;;16.16;100.00;97343.19;5135727;27;20650;-78
2021/05/09 10:03:46;;;;;;;5.80;5.20;;;;;;;16.07;100.00;97341.53;5135188;27;20233;-77
2021/05/09 10:06:14;;;;;;;2.83;2.63;;;;;;;16.09;100.00;97342.19;5136372;27;20201;-77
2021/05/09 10:08:41;;;;;;;2.30;2.20;;;;;;;16.41;100.00;97331.53;5137637;27;20283;-76
2021/05/09 10:11:09;;;;;;;2.80;1.90;;;;;;;16.31;100.00;97325.56;5135467;27;20266;-77
2021/05/09 10:13:36;;;;;;;2.50;2.30;;;;;;;17.31;100.00;97304.63;5135042;27;20247;-77
2021/05/09 10:16:04;;;;;;;16.90;10.27;;;;;;;17.07;100.00;97318.06;5135774;27;20279;-77
2021/05/09 10:18:32;;;;;;;2.97;2.53;;;;;;;16.85;100.00;97317.81;5135302;27;20237;-78
2021/05/09 10:21:00;;;;;;;3.77;2.87;;;;;;;16.49;100.00;97324.56;5135326;27;20205;-78
2021/05/09 10:23:28;;;;;;;2.30;2.10;;;;;;;16.58;100.00;97320.88;5133953;27;20294;-78
2021/05/09 10:25:56;;;;;;;8.47;7.17;;;;;;;17.33;100.00;97307.13;5135259;27;20198;-78
2021/05/09 10:28:24;;;;;;;8.20;6.83;;;;;;;17.92;100.00;97303.91;5135034;27;20233;-77
2021/05/09 10:30:55;;;;;;;21.67;15.23;;;;;;;17.96;100.00;97306.03;5135098;27;20279;-78
2021/05/09 10:33:44;;;;;;;10.30;6.57;;;;;;;17.13;100.00;97320.03;5134647;27;20194;-78
2021/05/09 10:36:40;;;;;;;2.80;1.97;;;;;;;16.54;100.00;97323.03;5135757;27;20657;-87
2021/05/09 10:39:13;;;;;;;3.90;2.20;;;;;;;16.97;100.00;97320.09;5135478;27;20204;-86
2021/05/09 10:42:13;;;;;;;7.03;6.03;;;;;;;16.65;100.00;97322.66;5135848;27;20619;-87
2021/05/09 10:44:41;;;;;;;6.33;5.30;;;;;;;16.74;100.00;97326.19;5135613;27;20203;-87
2021/05/09 10:47:13;;;;;;;3.27;2.20;;;;;;;17.12;100.00;97318.38;5135560;27;20244;-87
2021/05/09 10:50:13;;;;;;;2.37;2.00;;;;;;;17.59;100.00;97314.75;5135857;27;20261;-87
2021/05/09 10:52:41;;;;;;;3.20;2.90;;;;;;;17.85;100.00;97302.97;5135381;27;20582;-88
2021/05/09 10:55:41;;;;;;;8.43;5.00;;;;;;;17.88;100.00;97295.47;5135527;27;20669;-88
2021/05/09 10:58:10;;;;;;;13.73;10.87;;;;;;;18.45;100.00;97280.75;5135750;27;20268;-87
2021/05/09 11:01:13;;;;;;;6.13;5.10;;;;;;;18.34;100.00;97278.56;5132151;27;20198;-88
2021/05/09 11:03:48;;;;;;;5.67;4.20;;;;;;;19.32;100.00;97264.84;5122267;27;20226;-88
2021/05/09 11:06:16;;;;;;;2.53;2.33;;;;;;;19.04;100.00;97266.59;5135424;27;20190;-88
2021/05/09 11:09:00;;;;;;;3.73;3.30;;;;;;;18.13;100.00;97281.94;5135607;27;20195;-88
2021/05/09 11:11:55;;;;;;;3.40;3.10;;;;;;;17.40;100.00;97300.13;5135170;27;20698;-86
2021/05/09 11:14:23;;;;;;;6.40;3.57;;;;;;;17.48;100.00;97297.38;5135153;27;20261;-88
2021/05/09 11:17:07;;;;;;;1.90;1.80;;;;;;;17.69;100.00;97291.41;5135127;27;20183;-88
2021/05/09 11:19:36;;;;;;;4.40;3.57;;;;;;;17.92;100.00;97287.94;5134711;27;20287;-91
2021/05/09 11:22:03;;;;;;;2.00;1.80;;;;;;;17.90;100.00;97279.31;5135045;27;20191;-92
2021/05/09 11:24:32;;;;;;;5.80;1.80;;;;;;;17.61;100.00;97288.84;5135034;27;20266;-90
2021/05/09 11:27:00;;;;;;;2.23;2.03;;;;;;;18.18;100.00;97276.88;5134904;27;20201;-91
2021/05/09 11:29:29;;;;;;;5.67;2.07;;;;;;;18.39;100.00;97278.81;5135293;27;20234;-92
2021/05/09 11:31:58;;;;;;;1.73;1.63;;;;;;;18.09;100.00;97281.47;5134686;27;20309;-91
2021/05/09 11:34:26;;;;;;;1.60;1.50;;;;;;;17.53;100.00;97295.03;5134696;27;20248;-91
2021/05/09 11:36:54;;;;;;;1.87;1.50;;;;;;;17.32;100.00;97294.84;5135101;27;20198;-93